ADDS METAR Data INFO
IDs: Format: Raw Decoded Include TAF

Data at: 0937 UTC 17 Oct 2017

KROX 170935Z AUTO 20005KT 10SM 03/00 A2988 RMK AO2
KROX 170914Z AUTO 19005KT 10SM 04/01 A2988 RMK AO2
KROX 170854Z AUTO 19004KT 10SM 04/01 A2988 RMK AO2
KROX 170835Z AUTO 20003KT 10SM 04/01 A2989 RMK AO2
KROX 170814Z AUTO 00000KT 10SM 06/02 A2988 RMK AO2
KROX 170754Z AUTO 21003KT 10SM 07/02 A2989 RMK AO2
KROX 170734Z AUTO 23003KT 10SM 06/02 A2989 RMK AO2
KROX 170715Z AUTO 24004KT 10SM 08/03 A2989 RMK AO2
KROX 170654Z AUTO 25004KT 10SM 10/03 A2988 RMK AO2
KROX 170634Z AUTO 27007KT 10SM 10/03 A2988 RMK AO2
KROX 170615Z AUTO 27009KT 10SM 09/03 A2987 RMK AO2
KROX 170554Z AUTO 27008KT 10SM 10/03 A2987 RMK AO2
KROX 170534Z AUTO 28007KT 10SM 11/03 A2986 RMK AO2
KROX 170514Z AUTO 28006KT 10SM 11/04 A2986 RMK AO2
KROX 170454Z AUTO 27008KT 10SM 12/04 A2985 RMK AO2
KROX 170435Z AUTO 27007KT 10SM 12/04 A2985 RMK AO2
KROX 170414Z AUTO 25007KT 10SM 12/04 A2985 RMK AO2
KROX 170354Z AUTO 24006KT 10SM 12/04 A2985 RMK AO2
KROX 170335Z AUTO 24006KT 10SM 11/04 A2984 RMK AO2
KROX 170314Z AUTO 24006KT 10SM 11/04 A2984 RMK AO2
KROX 170255Z AUTO 24006KT 10SM 11/04 A2983 RMK AO2
KROX 170234Z AUTO 23006KT 10SM 11/04 A2983 RMK AO2
KROX 170214Z AUTO 24006KT 10SM 13/04 A2982 RMK AO2
KROX 170155Z AUTO 24006KT 10SM 12/04 A2982 RMK AO2
KROX 170134Z AUTO 23007KT 10SM 12/04 A2981 RMK AO2
KROX 170115Z AUTO 23006KT 10SM 12/04 A2981 RMK AO2
KROX 170054Z AUTO 24006KT 10SM 15/04 A2981 RMK AO2
KROX 170034Z AUTO 25007KT 10SM 15/04 A2980 RMK AO2
KROX 170015Z AUTO 23009KT 10SM 14/04 A2980 RMK AO2
KROX 162354Z AUTO 25004KT 10SM 16/04 A2981 RMK AO2
KROX 162334Z AUTO 27003KT 10SM 16/04 A2981 RMK AO2
KROX 162315Z AUTO 28005KT 10SM 17/05 A2980 RMK AO2
KROX 162254Z AUTO 27006KT 10SM 18/04 A2979 RMK AO2
KROX 162234Z AUTO 26007KT 10SM 18/04 A2979 RMK AO2
KROX 162214Z AUTO 25009G16KT 10SM 17/04 A2979 RMK AO2
KROX 162154Z AUTO 24008G14KT 10SM 18/04 A2978 RMK AO2
KROX 162134Z AUTO 26013G20KT 10SM 18/04 A2978 RMK AO2
KROX 162114Z AUTO 25013G21KT 10SM 18/04 A2977 RMK AO2
KROX 162054Z AUTO 25016G22KT 10SM 19/04 A2977 RMK AO2
KROX 162034Z AUTO 24017KT 10SM 18/04 A2977 RMK AO2
KROX 162014Z AUTO 23016G25KT 10SM 18/04 A2978 RMK AO2
KROX 161954Z AUTO 22019G27KT 10SM 18/04 A2977 RMK AO2
KROX 161934Z AUTO 23017G27KT 10SM 17/04 A2978 RMK AO2
KROX 161914Z AUTO 22021G27KT 10SM 17/03 A2979 RMK AO2
KROX 161854Z AUTO 21021G28KT 10SM 17/03 A2980 RMK AO2
KROX 161834Z AUTO 20023G26KT 10SM 17/03 A2980 RMK AO2
KROX 161814Z AUTO 21020G26KT 10SM 16/03 A2982 RMK AO2
KROX 161754Z AUTO 21017G25KT 10SM 16/03 A2984 RMK AO2
KROX 161734Z AUTO 21018G22KT 10SM 15/03 A2985 RMK AO2
KROX 161715Z AUTO 19017G21KT 10SM 14/04 A2986 RMK AO2
KROX 161654Z AUTO 20016G23KT 10SM 13/03 A2988 RMK AO2
KROX 161634Z AUTO 20014KT 10SM 12/03 A2989 RMK AO2
KROX 161615Z AUTO 20014KT 10SM 11/03 A2991 RMK AO2
KROX 161554Z AUTO 21013G21KT 10SM 11/03 A2992 RMK AO2
KROX 161534Z AUTO 20015G20KT 10SM 09/02 A2992 RMK AO2
KROX 161514Z AUTO 20013G21KT 10SM 09/03 A2994 RMK AO2
KROX 161454Z AUTO 19010KT 10SM 07/03 A2996 RMK AO2
KROX 161435Z AUTO 19010KT 10SM 06/02 A2996 RMK AO2
KROX 161414Z AUTO 19010KT 10SM 04/01 A2997 RMK AO2
KROX 161354Z AUTO 19009KT 10SM 03/00 A2998 RMK AO2
KROX 161335Z AUTO 19009KT 10SM 02/M01 A2999 RMK AO2
KROX 161314Z AUTO 19009KT 10SM 02/M01 A3000 RMK AO2
KROX 161254Z AUTO 19009KT 10SM 01/M01 A3000 RMK AO2
KROX 161234Z AUTO 19008KT 10SM 01/M02 A3001 RMK AO2
KROX 161214Z AUTO 19008KT 10SM 01/M02 A3001 RMK AO2
KROX 161155Z AUTO 18008KT 10SM 01/M02 A3002 RMK AO2
KROX 161134Z AUTO 19008KT 10SM 01/M02 A3003 RMK AO2
KROX 161114Z AUTO 19008KT 10SM 01/M02 A3004 RMK AO2
KROX 161055Z AUTO 20007KT 10SM 01/M02 A3004 RMK AO2
KROX 161034Z AUTO 21006KT 10SM 02/M01 A3005 RMK AO2
KROX 161014Z AUTO 21007KT 10SM 02/M01 A3005 RMK AO2
KROX 160955Z AUTO 20007KT 10SM 01/M02 A3005 RMK AO2
KROX 160934Z AUTO 20006KT 10SM 02/M01 A3006 RMK AO2
KROX 160914Z AUTO 21006KT 10SM 01/M02 A3006 RMK AO2
KROX 160855Z AUTO 21007KT 10SM 02/M01 A3006 RMK AO2
KROX 160834Z AUTO 22006KT 10SM 02/M01 A3006 RMK AO2
KROX 160814Z AUTO 22006KT 10SM 02/M01 A3007 RMK AO2
KROX 160755Z AUTO 22004KT 10SM 02/M01 A3008 RMK AO2
KROX 160734Z AUTO 22005KT 10SM 02/M01 A3009 RMK AO2
KROX 160714Z AUTO 22004KT 10SM 02/M01 A3009 RMK AO2
KROX 160655Z AUTO 22004KT 10SM 03/00 A3009 RMK AO2
KROX 160634Z AUTO 23003KT 10SM 03/M01 A3009 RMK AO2
KROX 160615Z AUTO 23003KT 10SM 02/M01 A3008 RMK AO2
KROX 160554Z AUTO 23005KT 10SM 03/M01 A3008 RMK AO2
KROX 160534Z AUTO 22005KT 10SM 02/M01 A3008 RMK AO2
KROX 160515Z AUTO 22005KT 10SM 03/M01 A3008 RMK AO2
KROX 160454Z AUTO 22006KT 10SM 03/00 A3008 RMK AO2
KROX 160434Z AUTO 23006KT 10SM 03/00 A3008 RMK AO2
KROX 160414Z AUTO 23005KT 10SM 03/00 A3008 RMK AO2
KROX 160354Z AUTO 22005KT 10SM 03/00 A3008 RMK AO2
KROX 160335Z AUTO 22005KT 10SM 04/01 A3009 RMK AO2
KROX 160314Z AUTO 22005KT 10SM 04/01 A3008 RMK AO2
KROX 160254Z AUTO 23006KT 10SM 05/01 A3008 RMK AO2
KROX 160235Z AUTO 23005KT 10SM 04/01 A3008 RMK AO2
KROX 160214Z AUTO 23005KT 10SM 06/02 A3008 RMK AO2
KROX 160155Z AUTO 25005KT 10SM 07/02 A3007 RMK AO2
KROX 160134Z AUTO 26005KT 10SM 08/02 A3007 RMK AO2
KROX 160114Z AUTO 26007KT 10SM 08/02 A3007 RMK AO2
KROX 160054Z AUTO 25007KT 10SM 08/02 A3007 RMK AO2
KROX 160034Z AUTO 26008KT 10SM 08/02 A3007 RMK AO2
KROX 160014Z AUTO 25007KT 10SM 09/02 A3006 RMK AO2
KROX 152354Z AUTO 23005KT 10SM 09/01 A3006 RMK AO2
KROX 152334Z AUTO 27003KT 10SM 10/01 A3005 RMK AO2
KROX 152315Z AUTO 25004KT 10SM 10/03 A3004 RMK AO2
KROX 152254Z AUTO 24005KT 10SM 11/02 A3004 RMK AO2
KROX 152234Z AUTO 25005KT 10SM 11/02 A3003 RMK AO2
KROX 152215Z AUTO 27005KT 10SM 11/02 A3003 RMK AO2
KROX 152154Z AUTO 27007KT 10SM 11/02 A3003 RMK AO2